sensor_id;sensor_type;location;lat;lon;timestamp;temperature;humidity
23540;DHT22;11947;50.810;4.394;2023-04-24T00:02:15;9.90;99.90
23540;DHT22;11947;50.810;4.394;2023-04-24T00:04:41;9.80;99.90
23540;DHT22;11947;50.810;4.394;2023-04-24T00:07:13;9.80;99.90
23540;DHT22;11947;50.810;4.394;2023-04-24T00:09:39;9.70;99.90
23540;DHT22;11947;50.810;4.394;2023-04-24T00:12:05;9.80;99.90
23540;DHT22;11947;50.810;4.394;2023-04-24T00:14:31;9.80;99.90
23540;DHT22;11947;50.810;4.394;2023-04-24T00:16:57;9.80;99.90
23540;DHT22;11947;50.810;4.394;2023-04-24T00:19:22;9.80;99.90
23540;DHT22;11947;50.810;4.394;2023-04-24T00:21:48;9.80;99.90
23540;DHT22;11947;50.810;4.394;2023-04-24T00:24:17;9.70;99.90
23540;DHT22;11947;50.810;4.394;2023-04-24T00:26:44;9.60;99.90
23540;DHT22;11947;50.810;4.394;2023-04-24T00:29:10;9.60;99.90
23540;DHT22;11947;50.810;4.394;2023-04-24T00:31:35;9.60;99.90
23540;DHT22;11947;50.810;4.394;2023-04-24T00:34:01;9.70;99.90
23540;DHT22;11947;50.810;4.394;2023-04-24T00:36:27;9.80;99.90
23540;DHT22;11947;50.810;4.394;2023-04-24T00:38:54;9.80;99.90
23540;DHT22;11947;50.810;4.394;2023-04-24T00:41:20;9.80;99.90
23540;DHT22;11947;50.810;4.394;2023-04-24T00:43:46;9.80;99.90
23540;DHT22;11947;50.810;4.394;2023-04-24T00:46:12;9.70;99.90
23540;DHT22;11947;50.810;4.394;2023-04-24T00:48:39;9.60;99.90
23540;DHT22;11947;50.810;4.394;2023-04-24T00:51:05;9.60;99.90
23540;DHT22;11947;50.810;4.394;2023-04-24T00:53:31;9.50;99.90
23540;DHT22;11947;50.810;4.394;2023-04-24T00:55:58;9.50;99.90
23540;DHT22;11947;50.810;4.394;2023-04-24T00:58:24;9.60;99.90
23540;DHT22;11947;50.810;4.394;2023-04-24T01:00:50;9.60;99.90
23540;DHT22;11947;50.810;4.394;2023-04-24T01:03:20;9.60;99.90
23540;DHT22;11947;50.810;4.394;2023-04-24T01:05:47;9.60;99.90
23540;DHT22;11947;50.810;4.394;2023-04-24T01:08:14;9.70;99.90
23540;DHT22;11947;50.810;4.394;2023-04-24T01:10:41;9.50;99.90
23540;DHT22;11947;50.810;4.394;2023-04-24T01:13:08;9.50;99.90
23540;DHT22;11947;50.810;4.394;2023-04-24T01:15:34;9.40;99.90
23540;DHT22;11947;50.810;4.394;2023-04-24T01:18:00;9.50;99.90
23540;DHT22;11947;50.810;4.394;2023-04-24T01:20:26;9.40;99.90
23540;DHT22;11947;50.810;4.394;2023-04-24T01:22:52;9.30;99.90
23540;DHT22;11947;50.810;4.394;2023-04-24T01:25:20;9.30;99.90
23540;DHT22;11947;50.810;4.394;2023-04-24T01:27:46;9.30;99.90
23540;DHT22;11947;50.810;4.394;2023-04-24T01:30:12;9.30;99.90
23540;DHT22;11947;50.810;4.394;2023-04-24T01:32:39;9.30;99.90
23540;DHT22;11947;50.810;4.394;2023-04-24T01:35:06;9.20;99.90
23540;DHT22;11947;50.810;4.394;2023-04-24T01:37:32;9.30;99.90
23540;DHT22;11947;50.810;4.394;2023-04-24T01:39:58;9.20;99.90
23540;DHT22;11947;50.810;4.394;2023-04-24T01:42:24;9.20;99.90
23540;DHT22;11947;50.810;4.394;2023-04-24T01:44:50;9.20;99.90
23540;DHT22;11947;50.810;4.394;2023-04-24T01:47:17;9.10;99.90
23540;DHT22;11947;50.810;4.394;2023-04-24T01:49:42;9.10;99.90
23540;DHT22;11947;50.810;4.394;2023-04-24T01:52:08;9.00;99.90
23540;DHT22;11947;50.810;4.394;2023-04-24T01:54:34;8.80;99.90
23540;DHT22;11947;50.810;4.394;2023-04-24T01:56:59;8.90;99.90
23540;DHT22;11947;50.810;4.394;2023-04-24T01:59:28;8.90;99.90
23540;DHT22;11947;50.810;4.394;2023-04-24T02:01:53;8.90;99.90
23540;DHT22;11947;50.810;4.394;2023-04-24T02:04:19;8.90;99.90
23540;DHT22;11947;50.810;4.394;2023-04-24T02:06:45;8.90;99.90
23540;DHT22;11947;50.810;4.394;2023-04-24T02:09:11;9.00;99.90
23540;DHT22;11947;50.810;4.394;2023-04-24T02:11:36;9.10;99.90
23540;DHT22;11947;50.810;4.394;2023-04-24T02:14:02;9.10;99.90
23540;DHT22;11947;50.810;4.394;2023-04-24T02:16:28;9.10;99.90
23540;DHT22;11947;50.810;4.394;2023-04-24T02:18:57;9.00;99.90
23540;DHT22;11947;50.810;4.394;2023-04-24T02:21:23;9.10;99.90
23540;DHT22;11947;50.810;4.394;2023-04-24T02:23:48;9.00;99.90
23540;DHT22;11947;50.810;4.394;2023-04-24T02:26:14;9.10;99.90
23540;DHT22;11947;50.810;4.394;2023-04-24T02:28:40;9.00;99.90
23540;DHT22;11947;50.810;4.394;2023-04-24T02:31:06;9.00;99.90
23540;DHT22;11947;50.810;4.394;2023-04-24T02:33:32;9.00;99.90
23540;DHT22;11947;50.810;4.394;2023-04-24T02:35:57;9.00;99.90
23540;DHT22;11947;50.810;4.394;2023-04-24T02:38:23;9.00;99.90
23540;DHT22;11947;50.810;4.394;2023-04-24T02:40:48;9.00;99.90
23540;DHT22;11947;50.810;4.394;2023-04-24T02:43:14;9.10;99.90
23540;DHT22;11947;50.810;4.394;2023-04-24T02:45:40;9.00;99.90
23540;DHT22;11947;50.810;4.394;2023-04-24T02:48:05;9.00;99.90
23540;DHT22;11947;50.810;4.394;2023-04-24T02:50:31;9.00;99.90
23540;DHT22;11947;50.810;4.394;2023-04-24T02:52:57;9.00;99.90
23540;DHT22;11947;50.810;4.394;2023-04-24T02:55:23;9.00;99.90
23540;DHT22;11947;50.810;4.394;2023-04-24T02:57:48;9.10;99.90
23540;DHT22;11947;50.810;4.394;2023-04-24T03:00:14;9.30;99.90
23540;DHT22;11947;50.810;4.394;2023-04-24T03:02:40;9.20;99.90
23540;DHT22;11947;50.810;4.394;2023-04-24T03:05:05;9.10;99.90
23540;DHT22;11947;50.810;4.394;2023-04-24T03:07:33;9.00;99.90
23540;DHT22;11947;50.810;4.394;2023-04-24T03:09:58;9.00;99.90
23540;DHT22;11947;50.810;4.394;2023-04-24T03:12:24;9.00;99.90
23540;DHT22;11947;50.810;4.394;2023-04-24T03:14:50;9.00;99.90
23540;DHT22;11947;50.810;4.394;2023-04-24T03:17:16;9.00;99.90
23540;DHT22;11947;50.810;4.394;2023-04-24T03:19:41;9.00;99.90
23540;DHT22;11947;50.810;4.394;2023-04-24T03:22:07;8.90;99.90
23540;DHT22;11947;50.810;4.394;2023-04-24T03:24:34;9.00;99.90
23540;DHT22;11947;50.810;4.394;2023-04-24T03:27:00;9.00;99.90
23540;DHT22;11947;50.810;4.394;2023-04-24T03:29:25;8.90;99.90
23540;DHT22;11947;50.810;4.394;2023-04-24T03:31:51;8.90;99.90
23540;DHT22;11947;50.810;4.394;2023-04-24T03:34:17;8.90;99.90
23540;DHT22;11947;50.810;4.394;2023-04-24T03:36:42;8.90;99.90
23540;DHT22;11947;50.810;4.394;2023-04-24T03:39:08;8.90;99.90
23540;DHT22;11947;50.810;4.394;2023-04-24T03:41:33;8.90;99.90
23540;DHT22;11947;50.810;4.394;2023-04-24T03:43:59;8.90;99.90
23540;DHT22;11947;50.810;4.394;2023-04-24T03:46:25;9.00;99.90
23540;DHT22;11947;50.810;4.394;2023-04-24T03:48:51;9.00;99.90
23540;DHT22;11947;50.810;4.394;2023-04-24T03:51:16;8.90;99.90
23540;DHT22;11947;50.810;4.394;2023-04-24T03:53:42;9.00;99.90
23540;DHT22;11947;50.810;4.394;2023-04-24T03:56:08;8.90;99.90
23540;DHT22;11947;50.810;4.394;2023-04-24T03:58:33;9.00;99.90
23540;DHT22;11947;50.810;4.394;2023-04-24T04:00:59;8.90;99.90
23540;DHT22;11947;50.810;4.394;2023-04-24T04:03:25;9.00;99.90
23540;DHT22;11947;50.810;4.394;2023-04-24T04:05:51;9.10;99.90
23540;DHT22;11947;50.810;4.394;2023-04-24T04:08:17;9.10;99.90
23540;DHT22;11947;50.810;4.394;2023-04-24T04:10:42;9.20;99.90
23540;DHT22;11947;50.810;4.394;2023-04-24T04:13:08;9.20;99.90
23540;DHT22;11947;50.810;4.394;2023-04-24T04:15:34;9.30;99.90
23540;DHT22;11947;50.810;4.394;2023-04-24T04:17:59;9.30;99.90
23540;DHT22;11947;50.810;4.394;2023-04-24T04:20:25;9.30;99.90
23540;DHT22;11947;50.810;4.394;2023-04-24T04:22:50;9.40;99.90
23540;DHT22;11947;50.810;4.394;2023-04-24T04:25:16;9.50;99.90
23540;DHT22;11947;50.810;4.394;2023-04-24T04:27:45;9.40;99.90
23540;DHT22;11947;50.810;4.394;2023-04-24T04:30:11;9.40;99.90
23540;DHT22;11947;50.810;4.394;2023-04-24T04:32:37;9.40;99.90
23540;DHT22;11947;50.810;4.394;2023-04-24T04:35:04;9.40;99.90
23540;DHT22;11947;50.810;4.394;2023-04-24T04:37:30;9.40;99.90
23540;DHT22;11947;50.810;4.394;2023-04-24T04:39:57;9.40;99.90
23540;DHT22;11947;50.810;4.394;2023-04-24T04:42:24;9.50;99.90
23540;DHT22;11947;50.810;4.394;2023-04-24T04:44:50;9.40;99.90
23540;DHT22;11947;50.810;4.394;2023-04-24T04:47:16;9.40;99.90
23540;DHT22;11947;50.810;4.394;2023-04-24T04:49:43;9.40;99.90
23540;DHT22;11947;50.810;4.394;2023-04-24T04:52:09;9.30;99.90
23540;DHT22;11947;50.810;4.394;2023-04-24T04:54:35;9.30;99.90
23540;DHT22;11947;50.810;4.394;2023-04-24T04:57:01;9.30;99.90
23540;DHT22;11947;50.810;4.394;2023-04-24T04:59:27;9.30;99.90
23540;DHT22;11947;50.810;4.394;2023-04-24T05:01:52;9.30;99.90
23540;DHT22;11947;50.810;4.394;2023-04-24T05:04:18;9.30;99.90
23540;DHT22;11947;50.810;4.394;2023-04-24T05:06:44;9.30;99.90
23540;DHT22;11947;50.810;4.394;2023-04-24T05:09:10;9.20;99.90
23540;DHT22;11947;50.810;4.394;2023-04-24T05:11:35;9.20;99.90
23540;DHT22;11947;50.810;4.394;2023-04-24T05:14:01;9.20;99.90
23540;DHT22;11947;50.810;4.394;2023-04-24T05:16:27;9.20;99.90
23540;DHT22;11947;50.810;4.394;2023-04-24T05:18:52;9.20;99.90
23540;DHT22;11947;50.810;4.394;2023-04-24T05:21:18;9.10;99.90
23540;DHT22;11947;50.810;4.394;2023-04-24T05:23:44;9.10;99.90
23540;DHT22;11947;50.810;4.394;2023-04-24T05:26:09;9.10;99.90
23540;DHT22;11947;50.810;4.394;2023-04-24T05:28:35;9.10;99.90
23540;DHT22;11947;50.810;4.394;2023-04-24T05:31:02;9.30;99.90
23540;DHT22;11947;50.810;4.394;2023-04-24T05:33:28;9.30;99.90
23540;DHT22;11947;50.810;4.394;2023-04-24T05:35:54;9.30;99.90
23540;DHT22;11947;50.810;4.394;2023-04-24T05:38:20;9.20;99.90
23540;DHT22;11947;50.810;4.394;2023-04-24T05:40:45;9.20;99.90
23540;DHT22;11947;50.810;4.394;2023-04-24T05:43:12;9.20;99.90
23540;DHT22;11947;50.810;4.394;2023-04-24T05:45:38;9.20;99.90
23540;DHT22;11947;50.810;4.394;2023-04-24T05:48:03;9.10;99.90
23540;DHT22;11947;50.810;4.394;2023-04-24T05:50:29;9.10;99.90
23540;DHT22;11947;50.810;4.394;2023-04-24T05:52:55;9.10;99.90
23540;DHT22;11947;50.810;4.394;2023-04-24T05:55:24;9.10;99.90
23540;DHT22;11947;50.810;4.394;2023-04-24T05:57:49;9.20;99.90
23540;DHT22;11947;50.810;4.394;2023-04-24T06:00:15;9.10;99.90
23540;DHT22;11947;50.810;4.394;2023-04-24T06:02:41;9.10;99.90
23540;DHT22;11947;50.810;4.394;2023-04-24T06:05:07;9.10;99.90
23540;DHT22;11947;50.810;4.394;2023-04-24T06:07:34;9.00;99.90
23540;DHT22;11947;50.810;4.394;2023-04-24T06:09:59;9.10;99.90
23540;DHT22;11947;50.810;4.394;2023-04-24T06:12:25;9.10;99.90
23540;DHT22;11947;50.810;4.394;2023-04-24T06:14:51;9.30;99.90
23540;DHT22;11947;50.810;4.394;2023-04-24T06:17:17;9.20;99.90
23540;DHT22;11947;50.810;4.394;2023-04-24T06:19:43;9.00;99.90
23540;DHT22;11947;50.810;4.394;2023-04-24T06:22:09;9.10;99.90
23540;DHT22;11947;50.810;4.394;2023-04-24T06:24:35;9.00;99.90
23540;DHT22;11947;50.810;4.394;2023-04-24T06:27:00;9.00;99.90
23540;DHT22;11947;50.810;4.394;2023-04-24T06:29:27;9.00;99.90
23540;DHT22;11947;50.810;4.394;2023-04-24T06:31:52;9.10;99.90
23540;DHT22;11947;50.810;4.394;2023-04-24T06:34:18;9.00;99.90
23540;DHT22;11947;50.810;4.394;2023-04-24T06:36:44;9.00;99.90
23540;DHT22;11947;50.810;4.394;2023-04-24T06:39:10;9.10;99.90
23540;DHT22;11947;50.810;4.394;2023-04-24T06:41:35;9.20;99.90
23540;DHT22;11947;50.810;4.394;2023-04-24T06:44:01;9.10;99.90
23540;DHT22;11947;50.810;4.394;2023-04-24T06:46:27;9.20;99.90
23540;DHT22;11947;50.810;4.394;2023-04-24T06:48:54;9.20;99.90
23540;DHT22;11947;50.810;4.394;2023-04-24T06:51:23;9.20;99.90
23540;DHT22;11947;50.810;4.394;2023-04-24T06:53:49;9.20;99.90
23540;DHT22;11947;50.810;4.394;2023-04-24T06:56:15;9.20;99.90
23540;DHT22;11947;50.810;4.394;2023-04-24T06:58:42;9.20;99.90
23540;DHT22;11947;50.810;4.394;2023-04-24T07:01:07;9.30;99.90
23540;DHT22;11947;50.810;4.394;2023-04-24T07:03:33;9.40;99.90
23540;DHT22;11947;50.810;4.394;2023-04-24T07:05:58;9.40;99.90
23540;DHT22;11947;50.810;4.394;2023-04-24T07:08:24;9.50;99.90
23540;DHT22;11947;50.810;4.394;2023-04-24T07:10:50;9.60;99.90
23540;DHT22;11947;50.810;4.394;2023-04-24T07:13:17;9.60;99.90
23540;DHT22;11947;50.810;4.394;2023-04-24T07:15:43;9.60;99.90
23540;DHT22;11947;50.810;4.394;2023-04-24T07:18:08;9.60;99.90
23540;DHT22;11947;50.810;4.394;2023-04-24T07:20:34;9.70;99.90
23540;DHT22;11947;50.810;4.394;2023-04-24T07:23:00;9.70;99.90
23540;DHT22;11947;50.810;4.394;2023-04-24T07:25:26;9.80;99.90
23540;DHT22;11947;50.810;4.394;2023-04-24T07:27:52;9.90;99.90
23540;DHT22;11947;50.810;4.394;2023-04-24T07:30:18;9.80;99.90
23540;DHT22;11947;50.810;4.394;2023-04-24T07:32:44;9.90;99.90
23540;DHT22;11947;50.810;4.394;2023-04-24T07:35:10;9.90;99.90
23540;DHT22;11947;50.810;4.394;2023-04-24T07:37:36;10.00;99.90
23540;DHT22;11947;50.810;4.394;2023-04-24T07:40:01;10.10;99.90
23540;DHT22;11947;50.810;4.394;2023-04-24T07:42:28;10.10;99.90
23540;DHT22;11947;50.810;4.394;2023-04-24T07:44:55;10.20;99.90
23540;DHT22;11947;50.810;4.394;2023-04-24T07:47:21;10.30;99.90
23540;DHT22;11947;50.810;4.394;2023-04-24T07:49:47;10.30;99.90
23540;DHT22;11947;50.810;4.394;2023-04-24T07:52:12;10.20;99.90
23540;DHT22;11947;50.810;4.394;2023-04-24T07:54:38;10.20;99.90
23540;DHT22;11947;50.810;4.394;2023-04-24T07:57:04;10.30;99.90
23540;DHT22;11947;50.810;4.394;2023-04-24T07:59:31;10.30;99.90
23540;DHT22;11947;50.810;4.394;2023-04-24T08:01:57;10.50;99.90
23540;DHT22;11947;50.810;4.394;2023-04-24T08:04:23;10.50;99.90
23540;DHT22;11947;50.810;4.394;2023-04-24T08:06:48;10.50;99.90
23540;DHT22;11947;50.810;4.394;2023-04-24T08:09:14;10.60;99.90
23540;DHT22;11947;50.810;4.394;2023-04-24T08:11:39;10.70;99.90
23540;DHT22;11947;50.810;4.394;2023-04-24T08:14:05;10.70;99.90
23540;DHT22;11947;50.810;4.394;2023-04-24T08:16:32;10.80;99.90
23540;DHT22;11947;50.810;4.394;2023-04-24T08:18:58;10.80;99.90
23540;DHT22;11947;50.810;4.394;2023-04-24T08:21:24;10.70;99.90
23540;DHT22;11947;50.810;4.394;2023-04-24T08:23:50;10.80;99.90
23540;DHT22;11947;50.810;4.394;2023-04-24T08:26:16;10.90;99.90
23540;DHT22;11947;50.810;4.394;2023-04-24T08:28:42;10.80;99.90
23540;DHT22;11947;50.810;4.394;2023-04-24T08:31:08;10.80;99.90
23540;DHT22;11947;50.810;4.394;2023-04-24T08:33:33;10.80;99.90
23540;DHT22;11947;50.810;4.394;2023-04-24T08:36:04;10.90;99.90
23540;DHT22;11947;50.810;4.394;2023-04-24T08:38:31;11.10;99.90
23540;DHT22;11947;50.810;4.394;2023-04-24T08:40:59;11.10;99.90
23540;DHT22;11947;50.810;4.394;2023-04-24T08:43:25;11.20;99.90
23540;DHT22;11947;50.810;4.394;2023-04-24T08:45:52;11.30;99.90
23540;DHT22;11947;50.810;4.394;2023-04-24T08:48:18;11.40;99.90
23540;DHT22;11947;50.810;4.394;2023-04-24T08:50:44;11.80;99.90
23540;DHT22;11947;50.810;4.394;2023-04-24T08:53:10;12.10;99.90
23540;DHT22;11947;50.810;4.394;2023-04-24T08:55:37;12.30;99.90
23540;DHT22;11947;50.810;4.394;2023-04-24T08:58:03;12.50;99.90
23540;DHT22;11947;50.810;4.394;2023-04-24T09:00:30;12.70;99.90
23540;DHT22;11947;50.810;4.394;2023-04-24T09:02:56;12.80;99.90
23540;DHT22;11947;50.810;4.394;2023-04-24T09:05:22;13.00;99.90
23540;DHT22;11947;50.810;4.394;2023-04-24T09:07:56;13.30;99.90
23540;DHT22;11947;50.810;4.394;2023-04-24T09:10:24;13.40;99.90
23540;DHT22;11947;50.810;4.394;2023-04-24T09:12:51;13.60;99.90
23540;DHT22;11947;50.810;4.394;2023-04-24T09:15:18;13.70;99.90
23540;DHT22;11947;50.810;4.394;2023-04-24T09:17:46;13.70;99.90
23540;DHT22;11947;50.810;4.394;2023-04-24T09:20:11;13.70;99.90
23540;DHT22;11947;50.810;4.394;2023-04-24T09:22:37;13.80;99.90
23540;DHT22;11947;50.810;4.394;2023-04-24T09:25:07;13.80;99.90
23540;DHT22;11947;50.810;4.394;2023-04-24T09:27:34;13.80;99.90
23540;DHT22;11947;50.810;4.394;2023-04-24T09:30:01;13.80;99.90
23540;DHT22;11947;50.810;4.394;2023-04-24T09:32:27;13.50;99.90
23540;DHT22;11947;50.810;4.394;2023-04-24T09:35:11;13.60;99.90
23540;DHT22;11947;50.810;4.394;2023-04-24T09:37:39;13.40;99.90
23540;DHT22;11947;50.810;4.394;2023-04-24T09:42:37;13.80;99.90
23540;DHT22;11947;50.810;4.394;2023-04-24T09:45:04;14.30;99.90
23540;DHT22;11947;50.810;4.394;2023-04-24T09:47:39;15.30;99.90
23540;DHT22;11947;50.810;4.394;2023-04-24T09:50:17;16.40;99.90
23540;DHT22;11947;50.810;4.394;2023-04-24T09:52:45;17.30;99.90
23540;DHT22;11947;50.810;4.394;2023-04-24T09:55:19;17.10;99.90
23540;DHT22;11947;50.810;4.394;2023-04-24T09:57:59;16.40;99.90
23540;DHT22;11947;50.810;4.394;2023-04-24T10:00:33;15.80;99.90
23540;DHT22;11947;50.810;4.394;2023-04-24T10:03:04;15.30;99.90
23540;DHT22;11947;50.810;4.394;2023-04-24T10:05:35;15.10;99.90
23540;DHT22;11947;50.810;4.394;2023-04-24T10:08:11;14.80;99.90
23540;DHT22;11947;50.810;4.394;2023-04-24T10:10:42;14.80;99.90
23540;DHT22;11947;50.810;4.394;2023-04-24T10:13:13;14.60;99.90
23540;DHT22;11947;50.810;4.394;2023-04-24T10:15:41;14.40;99.90
23540;DHT22;11947;50.810;4.394;2023-04-24T10:18:08;14.10;99.90
23540;DHT22;11947;50.810;4.394;2023-04-24T10:20:37;13.90;99.90
23540;DHT22;11947;50.810;4.394;2023-04-24T10:23:03;13.50;99.90
23540;DHT22;11947;50.810;4.394;2023-04-24T10:25:30;13.20;99.90
23540;DHT22;11947;50.810;4.394;2023-04-24T10:27:57;13.30;99.90
23540;DHT22;11947;50.810;4.394;2023-04-24T10:30:26;13.60;99.90
23540;DHT22;11947;50.810;4.394;2023-04-24T10:32:52;14.10;99.90
23540;DHT22;11947;50.810;4.394;2023-04-24T10:35:18;14.60;99.90
23540;DHT22;11947;50.810;4.394;2023-04-24T10:37:56;14.90;99.90
23540;DHT22;11947;50.810;4.394;2023-04-24T10:40:34;14.80;99.90
23540;DHT22;11947;50.810;4.394;2023-04-24T10:43:02;14.50;99.90
23540;DHT22;11947;50.810;4.394;2023-04-24T10:45:28;13.90;99.90
23540;DHT22;11947;50.810;4.394;2023-04-24T10:48:15;13.80;99.90
23540;DHT22;11947;50.810;4.394;2023-04-24T10:50:45;13.90;99.90
23540;DHT22;11947;50.810;4.394;2023-04-24T10:53:20;14.30;99.90
23540;DHT22;11947;50.810;4.394;2023-04-24T10:56:03;14.60;99.90
23540;DHT22;11947;50.810;4.394;2023-04-24T10:58:41;14.80;99.90
23540;DHT22;11947;50.810;4.394;2023-04-24T11:01:26;15.20;99.90
23540;DHT22;11947;50.810;4.394;2023-04-24T11:04:02;15.70;99.90
23540;DHT22;11947;50.810;4.394;2023-04-24T11:06:33;16.00;99.90
23540;DHT22;11947;50.810;4.394;2023-04-24T11:09:10;16.00;99.90
23540;DHT22;11947;50.810;4.394;2023-04-24T11:11:45;15.90;99.90
23540;DHT22;11947;50.810;4.394;2023-04-24T11:14:15;16.10;99.90
23540;DHT22;11947;50.810;4.394;2023-04-24T11:16:54;16.10;99.90
23540;DHT22;11947;50.810;4.394;2023-04-24T11:19:24;16.20;99.90
23540;DHT22;11947;50.810;4.394;2023-04-24T11:22:14;16.50;99.90
23540;DHT22;11947;50.810;4.394;2023-04-24T11:27:15;18.10;99.90
23540;DHT22;11947;50.810;4.394;2023-04-24T11:35:12;19.60;99.90
23540;DHT22;11947;50.810;4.394;2023-04-24T11:37:40;19.10;99.90
23540;DHT22;11947;50.810;4.394;2023-04-24T11:40:07;19.20;99.90
23540;DHT22;11947;50.810;4.394;2023-04-24T11:42:38;19.00;99.90
23540;DHT22;11947;50.810;4.394;2023-04-24T11:45:12;18.90;99.90
23540;DHT22;11947;50.810;4.394;2023-04-24T11:47:38;18.50;99.90
23540;DHT22;11947;50.810;4.394;2023-04-24T11:50:06;17.90;99.90
23540;DHT22;11947;50.810;4.394;2023-04-24T11:52:36;17.50;99.90
23540;DHT22;11947;50.810;4.394;2023-04-24T11:55:02;18.10;99.90
23540;DHT22;11947;50.810;4.394;2023-04-24T11:57:29;19.10;99.90
23540;DHT22;11947;50.810;4.394;2023-04-24T12:00:00;19.60;99.90
23540;DHT22;11947;50.810;4.394;2023-04-24T12:02:27;20.40;99.90
23540;DHT22;11947;50.810;4.394;2023-04-24T12:04:56;20.40;99.90
23540;DHT22;11947;50.810;4.394;2023-04-24T12:07:23;20.20;99.90
23540;DHT22;11947;50.810;4.394;2023-04-24T12:09:59;20.10;99.90
23540;DHT22;11947;50.810;4.394;2023-04-24T12:12:28;19.50;99.90
23540;DHT22;11947;50.810;4.394;2023-04-24T12:14:58;19.60;99.90
23540;DHT22;11947;50.810;4.394;2023-04-24T12:19:51;20.30;99.90
23540;DHT22;11947;50.810;4.394;2023-04-24T12:22:17;21.00;99.90
23540;DHT22;11947;50.810;4.394;2023-04-24T12:25:02;23.20;99.90
23540;DHT22;11947;50.810;4.394;2023-04-24T12:27:31;26.00;99.90
23540;DHT22;11947;50.810;4.394;2023-04-24T12:29:58;29.00;99.70
23540;DHT22;11947;50.810;4.394;2023-04-24T12:32:24;30.20;94.10
23540;DHT22;11947;50.810;4.394;2023-04-24T12:34:51;29.20;91.90
23540;DHT22;11947;50.810;4.394;2023-04-24T12:37:17;27.90;91.70
23540;DHT22;11947;50.810;4.394;2023-04-24T12:40:03;28.10;91.00
23540;DHT22;11947;50.810;4.394;2023-04-24T12:42:30;28.40;90.30
23540;DHT22;11947;50.810;4.394;2023-04-24T12:44:57;27.30;88.90
23540;DHT22;11947;50.810;4.394;2023-04-24T12:47:24;25.90;90.80
23540;DHT22;11947;50.810;4.394;2023-04-24T12:49:50;25.60;91.90
23540;DHT22;11947;50.810;4.394;2023-04-24T12:52:24;25.90;91.90
23540;DHT22;11947;50.810;4.394;2023-04-24T12:54:50;25.10;93.60
23540;DHT22;11947;50.810;4.394;2023-04-24T12:57:17;26.10;91.90
23540;DHT22;11947;50.810;4.394;2023-04-24T12:59:43;27.40;90.10
23540;DHT22;11947;50.810;4.394;2023-04-24T13:02:09;28.20;90.40
23540;DHT22;11947;50.810;4.394;2023-04-24T13:04:35;28.50;86.60
23540;DHT22;11947;50.810;4.394;2023-04-24T13:07:01;27.80;83.60
23540;DHT22;11947;50.810;4.394;2023-04-24T13:09:27;26.40;85.60
23540;DHT22;11947;50.810;4.394;2023-04-24T13:11:53;25.30;89.30
23540;DHT22;11947;50.810;4.394;2023-04-24T13:14:19;25.50;90.10
23540;DHT22;11947;50.810;4.394;2023-04-24T13:16:45;24.90;90.20
23540;DHT22;11947;50.810;4.394;2023-04-24T13:19:11;24.20;91.20
23540;DHT22;11947;50.810;4.394;2023-04-24T13:21:36;22.90;92.90
23540;DHT22;11947;50.810;4.394;2023-04-24T13:24:02;21.70;94.50
23540;DHT22;11947;50.810;4.394;2023-04-24T13:26:30;22.00;96.00
23540;DHT22;11947;50.810;4.394;2023-04-24T13:28:55;24.40;92.40
23540;DHT22;11947;50.810;4.394;2023-04-24T13:31:21;27.10;90.30
23540;DHT22;11947;50.810;4.394;2023-04-24T13:33:47;28.70;86.00
23540;DHT22;11947;50.810;4.394;2023-04-24T13:36:13;29.20;81.90
23540;DHT22;11947;50.810;4.394;2023-04-24T13:38:39;29.10;79.40
23540;DHT22;11947;50.810;4.394;2023-04-24T13:41:05;29.10;81.80
23540;DHT22;11947;50.810;4.394;2023-04-24T13:43:30;28.40;80.20
23540;DHT22;11947;50.810;4.394;2023-04-24T13:45:56;26.90;80.10
23540;DHT22;11947;50.810;4.394;2023-04-24T13:48:22;25.40;85.90
23540;DHT22;11947;50.810;4.394;2023-04-24T13:50:47;23.80;89.40
23540;DHT22;11947;50.810;4.394;2023-04-24T13:53:15;22.80;89.80
23540;DHT22;11947;50.810;4.394;2023-04-24T13:55:40;21.70;91.40
23540;DHT22;11947;50.810;4.394;2023-04-24T13:58:06;20.70;92.40
23540;DHT22;11947;50.810;4.394;2023-04-24T14:00:33;19.80;94.30
23540;DHT22;11947;50.810;4.394;2023-04-24T14:02:58;19.50;95.00
23540;DHT22;11947;50.810;4.394;2023-04-24T14:05:24;18.80;98.20
23540;DHT22;11947;50.810;4.394;2023-04-24T14:07:50;18.60;98.90
23540;DHT22;11947;50.810;4.394;2023-04-24T14:10:16;18.30;96.70
23540;DHT22;11947;50.810;4.394;2023-04-24T14:12:42;18.10;98.30
23540;DHT22;11947;50.810;4.394;2023-04-24T14:15:08;17.80;98.70
23540;DHT22;11947;50.810;4.394;2023-04-24T14:17:34;17.70;98.30
23540;DHT22;11947;50.810;4.394;2023-04-24T14:20:00;17.80;97.50
23540;DHT22;11947;50.810;4.394;2023-04-24T14:22:26;17.80;98.00
23540;DHT22;11947;50.810;4.394;2023-04-24T14:24:51;17.60;99.60
23540;DHT22;11947;50.810;4.394;2023-04-24T14:27:17;17.30;98.60
23540;DHT22;11947;50.810;4.394;2023-04-24T14:29:43;16.90;99.70
23540;DHT22;11947;50.810;4.394;2023-04-24T14:32:10;16.70;99.20
23540;DHT22;11947;50.810;4.394;2023-04-24T14:34:36;16.50;99.90
23540;DHT22;11947;50.810;4.394;2023-04-24T14:37:02;16.20;99.90
23540;DHT22;11947;50.810;4.394;2023-04-24T14:39:28;15.90;99.90
23540;DHT22;11947;50.810;4.394;2023-04-24T14:41:54;15.60;99.90
23540;DHT22;11947;50.810;4.394;2023-04-24T14:44:20;15.30;99.90
23540;DHT22;11947;50.810;4.394;2023-04-24T14:46:46;15.10;99.90
23540;DHT22;11947;50.810;4.394;2023-04-24T14:49:11;14.80;99.90
23540;DHT22;11947;50.810;4.394;2023-04-24T14:51:37;14.70;99.90
23540;DHT22;11947;50.810;4.394;2023-04-24T14:54:03;14.70;99.90
23540;DHT22;11947;50.810;4.394;2023-04-24T14:56:29;14.50;99.90
23540;DHT22;11947;50.810;4.394;2023-04-24T14:58:55;14.40;99.90
23540;DHT22;11947;50.810;4.394;2023-04-24T15:01:21;14.30;99.90
23540;DHT22;11947;50.810;4.394;2023-04-24T15:03:47;14.40;99.90
23540;DHT22;11947;50.810;4.394;2023-04-24T15:06:12;14.50;99.90
23540;DHT22;11947;50.810;4.394;2023-04-24T15:08:38;14.70;99.90
23540;DHT22;11947;50.810;4.394;2023-04-24T15:11:04;14.80;99.90
23540;DHT22;11947;50.810;4.394;2023-04-24T15:13:30;14.70;99.90
23540;DHT22;11947;50.810;4.394;2023-04-24T15:15:56;14.90;99.90
23540;DHT22;11947;50.810;4.394;2023-04-24T15:18:22;14.90;99.90
23540;DHT22;11947;50.810;4.394;2023-04-24T15:20:47;14.90;99.90
23540;DHT22;11947;50.810;4.394;2023-04-24T15:23:13;14.60;99.90
23540;DHT22;11947;50.810;4.394;2023-04-24T15:25:39;14.60;99.90
23540;DHT22;11947;50.810;4.394;2023-04-24T15:28:04;14.40;99.90
23540;DHT22;11947;50.810;4.394;2023-04-24T15:30:31;14.60;99.90
23540;DHT22;11947;50.810;4.394;2023-04-24T15:32:57;14.80;99.90
23540;DHT22;11947;50.810;4.394;2023-04-24T15:35:23;14.80;99.90
23540;DHT22;11947;50.810;4.394;2023-04-24T15:37:49;15.10;99.90
23540;DHT22;11947;50.810;4.394;2023-04-24T15:40:14;15.00;99.90
23540;DHT22;11947;50.810;4.394;2023-04-24T15:42:42;14.90;99.90
23540;DHT22;11947;50.810;4.394;2023-04-24T15:45:08;14.80;99.90
23540;DHT22;11947;50.810;4.394;2023-04-24T15:47:34;14.80;99.90
23540;DHT22;11947;50.810;4.394;2023-04-24T15:50:02;14.80;99.90